createdAt,value
2022-09-22T00:00:31.155Z,102649.28
2022-09-22T00:03:01.350Z,102650.94
2022-09-22T00:05:29.950Z,102645.09
2022-09-22T00:07:58.745Z,102651.00
2022-09-22T00:10:29.196Z,102646.81
2022-09-22T00:13:00.088Z,102635.91
2022-09-22T00:15:30.487Z,102642.50
2022-09-22T00:18:00.407Z,102648.00
2022-09-22T00:20:29.341Z,102640.84
2022-09-22T00:22:58.101Z,102646.38
2022-09-22T00:25:34.175Z,102642.63
2022-09-22T00:28:07.646Z,102633.88
2022-09-22T00:30:43.202Z,102633.28
2022-09-22T00:33:13.030Z,102635.00
2022-09-22T00:35:42.298Z,102628.81
2022-09-22T00:38:16.037Z,102621.94
2022-09-22T00:40:45.047Z,102622.06
2022-09-22T00:43:22.604Z,102615.84
2022-09-22T00:45:56.337Z,102607.78
2022-09-22T00:48:31.009Z,102613.75
2022-09-22T00:51:04.529Z,102618.53
2022-09-22T00:53:33.743Z,102611.06
2022-09-22T00:56:12.639Z,102608.88
2022-09-22T00:58:47.171Z,102603.81
2022-09-22T01:01:19.374Z,102605.13
2022-09-22T01:03:49.172Z,102615.09
2022-09-22T01:06:24.889Z,102604.84
2022-09-22T01:08:58.420Z,102603.00
2022-09-22T01:11:30.056Z,102594.28
2022-09-22T01:14:13.230Z,102602.50
2022-09-22T01:16:55.073Z,102606.78
2022-09-22T01:20:06.907Z,102600.41
2022-09-22T01:23:06.993Z,102607.09
2022-09-22T01:26:22.518Z,102602.09
2022-09-22T01:29:24.427Z,102602.94
2022-09-22T01:32:02.756Z,102596.84
2022-09-22T01:34:40.058Z,102593.38
2022-09-22T01:37:16.575Z,102591.03
2022-09-22T01:39:52.032Z,102583.50
2022-09-22T01:42:33.928Z,102589.59
2022-09-22T01:45:10.740Z,102589.22
2022-09-22T01:47:51.387Z,102588.03
2022-09-22T01:50:25.241Z,102575.56
2022-09-22T01:52:57.298Z,102575.75
2022-09-22T01:55:31.410Z,102572.69
2022-09-22T01:58:05.262Z,102571.59
2022-09-22T02:00:36.904Z,102570.69
2022-09-22T02:03:13.008Z,102558.53
2022-09-22T02:05:49.746Z,102565.72
2022-09-22T02:08:28.017Z,102563.13
2022-09-22T02:10:59.466Z,102557.88
2022-09-22T02:13:28.687Z,102554.31
2022-09-22T02:16:04.111Z,102554.13
2022-09-22T02:18:44.975Z,102555.50
2022-09-22T02:21:15.256Z,102551.16
2022-09-22T02:23:45.627Z,102545.16
2022-09-22T02:26:23.831Z,102541.34
2022-09-22T02:28:59.962Z,102541.34
2022-09-22T02:31:32.516Z,102541.38
2022-09-22T02:34:05.391Z,102542.25
2022-09-22T02:36:57.645Z,102537.94
2022-09-22T02:39:35.759Z,102534.44
2022-09-22T02:42:27.811Z,102531.06
2022-09-22T02:45:08.474Z,102539.38
2022-09-22T02:47:44.604Z,102542.19
2022-09-22T02:50:18.389Z,102539.44
2022-09-22T02:52:54.286Z,102542.19
2022-09-22T02:55:27.033Z,102540.31
2022-09-22T02:57:55.715Z,102531.34
2022-09-22T03:00:25.667Z,102532.47
2022-09-22T03:02:54.777Z,102529.69
2022-09-22T03:05:25.145Z,102530.28
2022-09-22T03:07:53.993Z,102524.53
2022-09-22T03:10:24.152Z,102518.59
2022-09-22T03:13:14.853Z,102527.66
2022-09-22T03:15:42.473Z,102524.94
2022-09-22T03:18:12.978Z,102526.13
2022-09-22T03:20:44.302Z,102529.75
2022-09-22T03:23:20.957Z,102526.59
2022-09-22T03:25:50.150Z,102525.41
2022-09-22T03:28:20.902Z,102522.13
2022-09-22T03:30:51.881Z,102519.28
2022-09-22T03:33:21.020Z,102512.25
2022-09-22T03:35:52.232Z,102512.25
2022-09-22T03:38:23.987Z,102523.13
2022-09-22T03:40:54.343Z,102511.81
2022-09-22T03:43:23.123Z,102513.59
2022-09-22T03:45:58.637Z,102512.66
2022-09-22T03:48:28.712Z,102515.59
2022-09-22T03:50:59.801Z,102512.03
2022-09-22T03:53:28.857Z,102508.44
2022-09-22T03:56:08.021Z,102504.91
2022-09-22T03:58:39.200Z,102505.41
2022-09-22T04:01:08.989Z,102512.38
2022-09-22T04:03:38.925Z,102505.22
2022-09-22T04:06:13.206Z,102501.53
2022-09-22T04:08:41.794Z,102509.06
2022-09-22T04:11:10.515Z,102506.03
2022-09-22T04:13:43.992Z,102507.81
2022-09-22T04:16:15.174Z,102501.72
2022-09-22T04:18:44.082Z,102497.59
2022-09-22T04:21:14.980Z,102500.78
2022-09-22T04:23:44.616Z,102494.56
2022-09-22T04:26:13.684Z,102488.34
2022-09-22T04:28:42.153Z,102497.44
2022-09-22T04:31:12.006Z,102496.56
2022-09-22T04:33:41.823Z,102493.66
2022-09-22T04:36:10.629Z,102487.69
2022-09-22T04:38:41.500Z,102493.94
2022-09-22T04:41:10.041Z,102495.06
2022-09-22T04:43:43.308Z,102493.25
2022-09-22T04:46:15.491Z,102491.59
2022-09-22T04:48:46.432Z,102488.84
2022-09-22T04:51:15.652Z,102486.34
2022-09-22T04:53:48.187Z,102479.31
2022-09-22T04:56:18.793Z,102483.13
2022-09-22T04:58:49.205Z,102482.03
2022-09-22T05:01:19.934Z,102487.22
2022-09-22T05:03:49.501Z,102492.78
2022-09-22T05:06:19.839Z,102491.56
2022-09-22T05:08:59.656Z,102492.19
2022-09-22T05:11:30.285Z,102491.16
2022-09-22T05:13:59.982Z,102493.41
2022-09-22T05:16:29.557Z,102493.94
2022-09-22T05:18:59.327Z,102492.19
2022-09-22T05:21:32.767Z,102496.13
2022-09-22T05:24:03.749Z,102488.75
2022-09-22T05:26:34.780Z,102487.03
2022-09-22T05:29:03.564Z,102493.47
2022-09-22T05:31:32.319Z,102489.81
2022-09-22T05:34:02.712Z,102487.13
2022-09-22T05:36:32.281Z,102506.84
2022-09-22T05:39:03.236Z,102498.22
2022-09-22T05:41:39.083Z,102500.38
2022-09-22T05:44:10.372Z,102493.94
2022-09-22T05:46:39.206Z,102492.19
2022-09-22T05:49:08.332Z,102501.03
2022-09-22T05:51:38.184Z,102495.59
2022-09-22T05:54:11.809Z,102494.69
2022-09-22T05:56:43.237Z,102491.03
2022-09-22T05:59:20.890Z,102485.84
2022-09-22T06:04:32.767Z,102498.72
2022-09-22T06:07:06.301Z,102495.22
2022-09-22T06:09:38.215Z,102496.09
2022-09-22T06:12:08.879Z,102494.19
2022-09-22T06:14:40.246Z,102495.69
2022-09-22T06:17:12.100Z,102494.56
2022-09-22T06:19:43.294Z,102497.88
2022-09-22T06:22:12.905Z,102493.25
2022-09-22T06:24:43.304Z,102496.69
2022-09-22T06:27:12.533Z,102495.59
2022-09-22T06:29:43.369Z,102490.91
2022-09-22T06:32:14.728Z,102494.16
2022-09-22T06:34:44.714Z,102495.47
2022-09-22T06:37:13.236Z,102497.31
2022-09-22T06:39:44.873Z,102497.50
2022-09-22T06:42:15.493Z,102498.91
2022-09-22T06:44:44.560Z,102487.81
2022-09-22T06:47:13.309Z,102484.09
2022-09-22T06:49:42.847Z,102486.19
2022-09-22T06:52:15.007Z,102486.44
2022-09-22T06:54:53.128Z,102491.78
2022-09-22T06:57:28.381Z,102494.03
2022-09-22T06:59:57.974Z,102488.59
2022-09-22T07:02:29.153Z,102495.25
2022-09-22T07:04:59.155Z,102492.22
2022-09-22T07:07:29.144Z,102482.47
2022-09-22T07:10:00.932Z,102490.00
2022-09-22T07:12:30.509Z,102487.94
2022-09-22T07:14:59.532Z,102482.88
2022-09-22T07:17:32.711Z,102482.91
2022-09-22T07:20:01.640Z,102476.00
2022-09-22T07:22:31.217Z,102472.94
2022-09-22T07:25:02.257Z,102469.91
2022-09-22T07:27:33.696Z,102469.88
2022-09-22T07:30:10.276Z,102479.25
2022-09-22T07:32:39.045Z,102473.81
2022-09-22T07:35:09.324Z,102472.44
2022-09-22T07:37:41.006Z,102471.38
2022-09-22T07:40:12.268Z,102467.91
2022-09-22T07:42:41.627Z,102464.41
2022-09-22T07:45:27.058Z,102464.19
2022-09-22T07:48:28.542Z,102461.53
2022-09-22T07:51:01.292Z,102457.72
2022-09-22T07:53:31.515Z,102459.75
2022-09-22T07:56:07.749Z,102452.19
2022-09-22T07:58:38.333Z,102448.38
2022-09-22T08:01:11.046Z,102440.25
2022-09-22T08:03:41.807Z,102451.00
2022-09-22T08:06:12.483Z,102446.34
2022-09-22T08:08:43.995Z,102448.19
2022-09-22T08:11:18.597Z,102443.13
2022-09-22T08:13:56.109Z,102443.44
2022-09-22T08:16:30.660Z,102443.69
2022-09-22T08:19:12.214Z,102451.50
2022-09-22T08:21:48.377Z,102438.34
2022-09-22T08:24:24.823Z,102445.06
2022-09-22T08:26:56.443Z,102431.09
2022-09-22T08:29:25.709Z,102446.03
2022-09-22T08:31:56.786Z,102444.81
2022-09-22T08:34:32.718Z,102443.13
2022-09-22T08:37:03.360Z,102439.34
2022-09-22T08:39:33.311Z,102436.53
2022-09-22T08:42:12.344Z,102439.41
2022-09-22T08:44:53.268Z,102441.97
2022-09-22T08:47:41.209Z,102429.75
2022-09-22T08:50:44.686Z,102436.31
2022-09-22T08:53:26.342Z,102439.72
2022-09-22T08:56:07.239Z,102441.66
2022-09-22T08:58:50.265Z,102439.09
2022-09-22T09:01:51.609Z,102436.63
2022-09-22T09:04:58.184Z,102442.13
2022-09-22T09:07:35.569Z,102435.66
2022-09-22T09:10:23.560Z,102434.13
2022-09-22T09:13:17.043Z,102429.38
2022-09-22T09:16:06.747Z,102425.03
2022-09-22T09:18:42.584Z,102427.53
2022-09-22T09:21:18.632Z,102424.84
2022-09-22T09:26:42.541Z,102423.66
2022-09-22T09:29:22.439Z,102420.38
2022-09-22T09:31:57.241Z,102425.63
2022-09-22T09:34:30.198Z,102426.69
2022-09-22T09:37:12.362Z,102428.47
2022-09-22T09:39:45.783Z,102427.75
2022-09-22T09:42:25.028Z,102422.94
2022-09-22T09:45:02.697Z,102427.22
2022-09-22T09:48:01.944Z,102434.69
2022-09-22T09:50:32.539Z,102428.06
2022-09-22T09:53:02.500Z,102431.53
2022-09-22T09:55:36.081Z,102422.16
2022-09-22T09:58:36.497Z,102425.84
2022-09-22T10:01:07.649Z,102411.94
2022-09-22T10:03:54.793Z,102429.72
2022-09-22T10:06:29.299Z,102429.69
2022-09-22T10:09:03.477Z,102418.81
2022-09-22T10:11:38.715Z,102415.19
2022-09-22T10:14:21.340Z,102415.47
2022-09-22T10:16:53.534Z,102409.75
2022-09-22T10:19:32.242Z,102409.88
2022-09-22T10:22:28.874Z,102407.41
2022-09-22T10:25:06.484Z,102410.88
2022-09-22T10:28:02.747Z,102402.44
2022-09-22T10:30:40.838Z,102410.66
2022-09-22T10:33:20.883Z,102396.75
2022-09-22T10:36:11.035Z,102386.94
2022-09-22T10:39:09.743Z,102396.97
2022-09-22T10:42:25.579Z,102398.13
2022-09-22T10:45:49.644Z,102390.78
2022-09-22T10:48:58.438Z,102379.00
2022-09-22T10:52:30.155Z,102376.31
2022-09-22T10:56:00.273Z,102376.38
2022-09-22T10:59:28.895Z,102374.69
2022-09-22T11:03:12.597Z,102361.81
2022-09-22T11:07:06.677Z,102362.13
2022-09-22T11:13:53.213Z,102351.75
2022-09-22T11:17:18.107Z,102347.75
2022-09-22T11:20:45.980Z,102347.84
2022-09-22T11:24:11.146Z,102344.66
2022-09-22T11:27:21.393Z,102333.22
2022-09-22T11:30:59.106Z,102344.78
2022-09-22T11:35:28.858Z,102336.75
2022-09-22T11:38:23.680Z,102335.19
2022-09-22T11:45:39.175Z,102332.97
2022-09-22T11:52:26.110Z,102317.41
2022-09-22T11:55:45.485Z,102296.78
2022-09-22T11:58:51.201Z,102304.38
2022-09-22T12:01:42.033Z,102303.00
2022-09-22T12:04:29.110Z,102291.47
2022-09-22T12:07:02.225Z,102289.69
2022-09-22T12:09:41.271Z,102289.41
2022-09-22T12:12:19.607Z,102274.78
2022-09-22T12:15:03.376Z,102272.75
2022-09-22T12:17:49.012Z,102268.63
2022-09-22T12:20:39.301Z,102259.97
2022-09-22T12:23:38.903Z,102266.78
2022-09-22T12:26:12.504Z,102249.94
2022-09-22T12:28:45.745Z,102249.97
2022-09-22T12:31:17.457Z,102251.34
2022-09-22T12:33:55.592Z,102251.78
2022-09-22T12:36:34.198Z,102246.06
2022-09-22T12:39:18.338Z,102250.56
2022-09-22T12:41:50.452Z,102240.13
2022-09-22T12:44:26.227Z,102233.19
2022-09-22T12:47:04.985Z,102239.25
2022-09-22T12:49:50.088Z,102231.97
2022-09-22T12:53:05.265Z,102227.50
2022-09-22T12:55:39.557Z,102224.16
2022-09-22T12:58:42.648Z,102221.78
2022-09-22T13:01:49.972Z,102226.63
2022-09-22T13:04:22.942Z,102226.16
2022-09-22T13:07:02.942Z,102218.66
2022-09-22T13:09:34.259Z,102206.13
2022-09-22T13:12:38.354Z,102207.78
2022-09-22T13:15:24.918Z,102204.78
2022-09-22T13:17:54.359Z,102198.75
2022-09-22T13:20:33.217Z,102200.41
2022-09-22T13:23:14.815Z,102203.81
2022-09-22T13:25:44.776Z,102198.09
2022-09-22T13:28:21.454Z,102192.53
2022-09-22T13:31:06.096Z,102185.31
2022-09-22T13:33:38.540Z,102186.97
2022-09-22T13:36:11.771Z,102185.91
2022-09-22T13:38:46.416Z,102176.84
2022-09-22T13:41:21.660Z,102182.28
2022-09-22T13:43:55.537Z,102182.59
2022-09-22T13:46:43.717Z,102184.34
2022-09-22T13:49:20.361Z,102172.34
2022-09-22T13:51:56.275Z,102165.81
2022-09-22T13:54:32.574Z,102177.59
2022-09-22T13:57:04.054Z,102172.44
2022-09-22T13:59:42.447Z,102174.16
2022-09-22T14:02:16.683Z,102174.16
2022-09-22T14:04:54.557Z,102168.03
2022-09-22T14:07:26.753Z,102160.59
2022-09-22T14:10:01.599Z,102173.34
2022-09-22T14:12:31.616Z,102165.09
2022-09-22T14:15:34.482Z,102151.88
2022-09-22T14:18:04.167Z,102156.63
2022-09-22T14:20:34.602Z,102154.38
2022-09-22T14:23:03.574Z,102146.34
2022-09-22T14:25:36.771Z,102152.19
2022-09-22T14:28:06.319Z,102144.50
2022-09-22T14:30:38.674Z,102149.06
2022-09-22T14:33:08.202Z,102137.94
2022-09-22T14:35:40.352Z,102142.22
2022-09-22T14:38:16.842Z,102134.97
2022-09-22T14:40:58.991Z,102135.94
2022-09-22T14:43:42.534Z,102138.44
2022-09-22T14:46:34.247Z,102131.66
2022-09-22T14:49:41.068Z,102135.81
2022-09-22T14:52:28.908Z,102126.56
2022-09-22T14:55:04.062Z,102124.41
2022-09-22T14:57:34.632Z,102128.16
2022-09-22T15:00:22.663Z,102134.47
2022-09-22T15:02:55.683Z,102123.16
2022-09-22T15:05:32.558Z,102125.09
2022-09-22T15:08:07.090Z,102123.19
2022-09-22T15:10:37.601Z,102115.22
2022-09-22T15:13:31.709Z,102110.03
2022-09-22T15:16:04.353Z,102110.78
2022-09-22T15:18:35.184Z,102118.13
2022-09-22T15:21:12.521Z,102113.88
2022-09-22T15:23:48.214Z,102119.56
2022-09-22T15:26:24.099Z,102120.13
2022-09-22T15:29:01.790Z,102106.72
2022-09-22T15:31:32.622Z,102112.56
2022-09-22T15:34:03.146Z,102112.25
2022-09-22T15:36:33.920Z,102111.84
2022-09-22T15:39:10.535Z,102108.13
2022-09-22T15:41:39.150Z,102103.31
2022-09-22T15:44:11.803Z,102106.31
2022-09-22T15:46:41.840Z,102113.97
2022-09-22T15:49:21.888Z,102099.25
2022-09-22T15:51:55.490Z,102104.25
2022-09-22T15:54:26.633Z,102100.09
2022-09-22T15:56:59.514Z,102100.22
2022-09-22T15:59:35.166Z,102105.84
2022-09-22T16:02:09.762Z,102103.50
2022-09-22T16:04:39.765Z,102091.97
2022-09-22T16:07:13.813Z,102094.59
2022-09-22T16:09:43.218Z,102092.72
2022-09-22T16:12:15.759Z,102087.00
2022-09-22T16:14:47.839Z,102088.78
2022-09-22T16:17:19.092Z,102085.34
2022-09-22T16:19:50.740Z,102084.59
2022-09-22T16:22:20.121Z,102092.19
2022-09-22T16:24:48.930Z,102080.53
2022-09-22T16:27:17.723Z,102075.97
2022-09-22T16:29:48.698Z,102081.06
2022-09-22T16:32:18.982Z,102077.47
2022-09-22T16:34:48.668Z,102082.25
2022-09-22T16:37:17.977Z,102078.00
2022-09-22T16:39:48.658Z,102082.72
2022-09-22T16:42:22.860Z,102078.34
2022-09-22T16:45:03.937Z,102080.25
2022-09-22T16:47:32.646Z,102083.50
2022-09-22T16:50:01.570Z,102073.13
2022-09-22T16:52:32.306Z,102068.06
2022-09-22T16:55:08.319Z,102071.44
2022-09-22T16:57:37.072Z,102072.81
2022-09-22T17:00:13.815Z,102076.88
2022-09-22T17:02:46.765Z,102079.19
2022-09-22T17:05:15.970Z,102081.81
2022-09-22T17:07:47.565Z,102078.72
2022-09-22T17:10:16.945Z,102065.72
2022-09-22T17:12:46.595Z,102079.69
2022-09-22T17:15:18.626Z,102071.53
2022-09-22T17:17:49.041Z,102074.38
2022-09-22T17:20:17.701Z,102063.84
2022-09-22T17:22:47.032Z,102059.56
2022-09-22T17:25:18.227Z,102070.22
2022-09-22T17:27:50.259Z,102067.72
2022-09-22T17:30:20.460Z,102064.88
2022-09-22T17:32:53.250Z,102072.91
2022-09-22T17:35:23.353Z,102065.41
2022-09-22T17:37:53.335Z,102066.28
2022-09-22T17:40:22.095Z,102062.66
2022-09-22T17:42:51.532Z,102060.63
2022-09-22T17:45:22.216Z,102060.53
2022-09-22T17:48:08.649Z,102061.06
2022-09-22T17:50:54.928Z,102059.31
2022-09-22T17:53:42.256Z,102067.59
2022-09-22T17:56:13.971Z,102058.78
2022-09-22T17:58:42.866Z,102062.28
2022-09-22T18:01:13.011Z,102064.34
2022-09-22T18:03:45.245Z,102066.97
2022-09-22T18:06:15.997Z,102071.31
2022-09-22T18:08:45.372Z,102070.38
2022-09-22T18:11:14.220Z,102059.31
2022-09-22T18:13:46.793Z,102072.34
2022-09-22T18:16:37.470Z,102070.19
2022-09-22T18:19:13.195Z,102066.50
2022-09-22T18:21:47.352Z,102060.31
2022-09-22T18:24:20.584Z,102067.53
2022-09-22T18:27:02.323Z,102067.75
2022-09-22T18:29:36.238Z,102068.59
2022-09-22T18:32:13.870Z,102061.53
2022-09-22T18:34:48.323Z,102057.31
2022-09-22T18:37:23.188Z,102074.19
2022-09-22T18:39:53.458Z,102069.31
2022-09-22T18:42:31.105Z,102063.91
2022-09-22T18:45:01.411Z,102063.56
2022-09-22T18:47:43.944Z,102067.84
2022-09-22T18:50:17.518Z,102078.28
2022-09-22T18:52:49.156Z,102064.97
2022-09-22T18:55:32.988Z,102075.22
2022-09-22T18:58:05.193Z,102072.88
2022-09-22T19:00:41.822Z,102071.72
2022-09-22T19:03:23.143Z,102075.53
2022-09-22T19:06:19.888Z,102070.00
2022-09-22T19:08:57.375Z,102079.47
2022-09-22T19:11:36.251Z,102076.66
2022-09-22T19:14:06.685Z,102077.50
2022-09-22T19:16:53.590Z,102075.50
2022-09-22T19:19:46.088Z,102074.59
2022-09-22T19:22:20.099Z,102068.34
2022-09-22T19:24:54.051Z,102066.31
2022-09-22T19:27:29.808Z,102068.75
2022-09-22T19:30:07.694Z,102067.75
2022-09-22T19:32:42.955Z,102063.06
2022-09-22T19:35:16.018Z,102065.06
2022-09-22T19:37:58.360Z,102062.28
2022-09-22T19:40:53.968Z,102061.59
2022-09-22T19:43:30.416Z,102061.97
2022-09-22T19:46:04.766Z,102068.38
2022-09-22T19:48:34.858Z,102067.81
2022-09-22T19:51:10.494Z,102061.03
2022-09-22T19:53:39.933Z,102062.50
2022-09-22T19:56:12.527Z,102063.38
2022-09-22T19:58:46.093Z,102059.59
2022-09-22T20:01:35.811Z,102064.72
2022-09-22T20:04:12.122Z,102054.38
2022-09-22T20:06:48.301Z,102055.66
2022-09-22T20:09:32.783Z,102046.75
2022-09-22T20:12:12.099Z,102041.72
2022-09-22T20:14:46.924Z,102039.63
2022-09-22T20:17:21.052Z,102040.00
2022-09-22T20:19:57.481Z,102042.91
2022-09-22T20:22:37.952Z,102031.97
2022-09-22T20:25:12.116Z,102031.31
2022-09-22T20:27:42.624Z,102036.09
2022-09-22T20:30:16.297Z,102037.78
2022-09-22T20:32:46.558Z,102032.56
2022-09-22T20:35:21.628Z,102028.28
2022-09-22T20:37:58.268Z,102031.88
2022-09-22T20:40:27.277Z,102029.19
2022-09-22T20:42:56.832Z,102028.00
2022-09-22T20:45:26.543Z,102024.72
2022-09-22T20:47:56.492Z,102024.94
2022-09-22T20:50:26.407Z,102015.94
2022-09-22T20:52:57.573Z,102014.59
2022-09-22T20:55:27.293Z,102016.50
2022-09-22T20:57:56.187Z,102009.84
2022-09-22T21:00:27.048Z,102003.97
2022-09-22T21:03:00.462Z,102016.03
2022-09-22T21:05:29.930Z,102012.31
2022-09-22T21:08:13.781Z,102017.00
2022-09-22T21:10:43.123Z,102015.63
2022-09-22T21:13:13.948Z,102009.59
2022-09-22T21:15:43.273Z,102008.34
2022-09-22T21:18:12.965Z,102003.06
2022-09-22T21:20:42.713Z,101996.09
2022-09-22T21:23:14.231Z,101994.34
2022-09-22T21:25:57.207Z,102000.69
2022-09-22T21:28:26.215Z,101996.47
2022-09-22T21:30:59.955Z,101992.44
2022-09-22T21:33:30.087Z,101993.47
2022-09-22T21:36:05.690Z,101984.56
2022-09-22T21:38:40.070Z,101988.88
2022-09-22T21:41:16.077Z,101986.97
2022-09-22T21:43:46.357Z,101985.97
2022-09-22T21:46:19.276Z,101985.94
2022-09-22T21:48:50.780Z,101985.13
2022-09-22T21:51:22.364Z,101979.91
2022-09-22T21:53:55.761Z,101972.22
2022-09-22T21:56:26.179Z,101969.03
2022-09-22T21:58:56.811Z,101965.28
2022-09-22T22:01:28.597Z,101973.06
2022-09-22T22:03:59.820Z,101971.50
2022-09-22T22:06:33.854Z,101959.63
2022-09-22T22:09:07.829Z,101962.97
2022-09-22T22:11:39.653Z,101965.06
2022-09-22T22:14:10.610Z,101966.97
2022-09-22T22:16:43.169Z,101965.75
2022-09-22T22:19:14.419Z,101960.56
2022-09-22T22:21:44.536Z,101959.81
2022-09-22T22:24:28.574Z,101960.91
2022-09-22T22:27:01.106Z,101955.97
2022-09-22T22:29:32.120Z,101952.41
2022-09-22T22:32:00.690Z,101955.56
2022-09-22T22:34:30.323Z,101947.41
2022-09-22T22:37:00.624Z,101946.41
2022-09-22T22:39:32.403Z,101947.84
2022-09-22T22:42:00.771Z,101949.78
2022-09-22T22:44:29.180Z,101938.97
2022-09-22T22:46:58.436Z,101942.44
2022-09-22T22:49:28.276Z,101950.72
2022-09-22T22:51:57.291Z,101936.44
2022-09-22T22:54:26.075Z,101934.72
2022-09-22T22:56:56.929Z,101940.63
2022-09-22T22:59:25.225Z,101922.72
2022-09-22T23:01:56.526Z,101928.28
2022-09-22T23:04:27.299Z,101923.34
2022-09-22T23:06:58.374Z,101934.97
2022-09-22T23:09:40.273Z,101920.38
2022-09-22T23:12:10.654Z,101921.69
2022-09-22T23:14:40.871Z,101913.97
2022-09-22T23:17:09.601Z,101912.63
2022-09-22T23:19:38.937Z,101912.47
2022-09-22T23:22:08.059Z,101910.13
2022-09-22T23:24:39.421Z,101915.50
2022-09-22T23:27:13.264Z,101907.69
2022-09-22T23:29:44.065Z,101910.09
2022-09-22T23:32:12.854Z,101912.47
2022-09-22T23:34:43.765Z,101914.81
2022-09-22T23:37:13.436Z,101912.03
2022-09-22T23:39:44.285Z,101911.88
2022-09-22T23:42:16.304Z,101909.00
2022-09-22T23:44:45.576Z,101898.22
2022-09-22T23:47:18.045Z,101906.28
2022-09-22T23:49:49.708Z,101900.19
2022-09-22T23:52:18.621Z,101898.03
2022-09-22T23:54:48.719Z,101893.78
2022-09-22T23:57:19.135Z,101892.09
2022-09-22T23:59:48.137Z,101892.00
